Terminal Aerodrome Forecast
Issued by NWS

Home | Current Version | Previous Version | Text Only | Print | Product List | Glossary On
Versions: 1 2 3 4 5 6 7 8 9 10 11 12 13
000
FTUS45 KABQ 192300
TAFAEG
TAF
KAEG 192328Z 2000/2024 12005KT P6SM SCT080
     FM200900 06005KT P6SM FEW015 SCT100
     FM201400 03005KT P6SM SKC
     FM202200 09010G20KT P6SM SKC=

USA.gov is the U.S. government's official web portal to all federal, state and local government web resources and services.